Time;durP1;ratioP1;P1;durP2;ratioP2;P2;SDS_P1;SDS_P2;PMS_P1;PMS_P2;Temp;Humidity;BMP_temperature;BMP_pressure;BME280_temperature;BME280_humidity;BME280_pressure;Samples;Min_cycle;Max_cycle;Signal;HPM_P1;HPM_P2
2022/04/07 00:01:16;;;;;;;;;;;0.30;97.70;;;;;;5062442;28;19908;-77
2022/04/07 00:03:41;;;;;;;;;;;0.30;97.60;;;;;;5072640;28;19948;-77
2022/04/07 00:06:09;;;;;;;;;;;0.30;97.70;;;;;;5074876;28;19912;-79
2022/04/07 00:08:40;;;;;;;;;;;0.30;97.70;;;;;;5094943;28;19935;-77
2022/04/07 00:11:06;;;;;;;;;;;0.30;97.90;;;;;;5093246;28;19949;-81
2022/04/07 00:13:32;;;;;;;;;;;0.30;97.90;;;;;;5092816;28;19916;-79
2022/04/07 00:15:59;;;;;;;;;;;0.30;97.80;;;;;;5093031;28;19912;-81
2022/04/07 00:18:26;;;;;;;;;;;0.30;97.90;;;;;;5093080;28;19911;-80
2022/04/07 00:20:54;;;;;;;;;;;0.40;97.90;;;;;;5092457;28;19958;-80
2022/04/07 00:23:20;;;;;;;;;;;0.40;98.00;;;;;;5091750;28;19915;-80
2022/04/07 00:25:46;;;;;;;;;;;0.40;98.00;;;;;;5093610;28;19904;-81
2022/04/07 00:28:12;;;;;;;;;;;0.40;97.90;;;;;;5094732;28;20033;-78
2022/04/07 00:30:39;;;;;;;;;;;0.40;97.90;;;;;;5093518;28;19912;-79
2022/04/07 00:33:05;;;;;;;;;;;0.40;97.90;;;;;;5092962;28;19904;-79
2022/04/07 00:35:31;;;;;;;;;;;0.40;97.80;;;;;;5092991;28;19904;-79
2022/04/07 00:37:57;;;;;;;;;;;0.40;97.80;;;;;;5096359;28;19915;-79
2022/04/07 00:40:23;;;;;;;;;;;0.40;97.80;;;;;;5099136;28;19908;-78
2022/04/07 00:42:50;;;;;;;;;;;0.40;97.80;;;;;;5099744;28;19943;-79
2022/04/07 00:45:16;;;;;;;;;;;0.40;97.80;;;;;;5096524;28;19904;-80
2022/04/07 00:47:42;;;;;;;;;;;0.40;97.80;;;;;;5077622;28;19937;-79
2022/04/07 00:50:10;;;;;;;;;;;0.40;97.80;;;;;;5095995;28;19914;-79
2022/04/07 00:52:37;;;;;;;;;;;0.40;97.80;;;;;;5096752;28;19998;-79
2022/04/07 00:55:02;;;;;;;;;;;0.40;97.70;;;;;;5098574;28;19914;-80
2022/04/07 00:57:28;;;;;;;;;;;0.40;97.70;;;;;;5095934;28;20272;-79
2022/04/07 00:59:55;;;;;;;;;;;0.40;97.70;;;;;;5095864;28;20013;-80
2022/04/07 01:02:21;;;;;;;;;;;0.30;97.60;;;;;;5077633;28;20011;-78
2022/04/07 01:04:46;;;;;;;;;;;0.40;97.90;;;;;;5095762;28;20341;-78
2022/04/07 01:07:13;;;;;;;;;;;0.30;97.60;;;;;;5095547;28;20270;-78
2022/04/07 01:09:38;;;;;;;;;;;0.30;97.60;;;;;;5095302;28;20007;-78
2022/04/07 01:12:04;;;;;;;;;;;0.30;97.70;;;;;;5094318;28;20011;-77
2022/04/07 01:14:30;;;;;;;;;;;0.30;97.80;;;;;;5095740;28;19923;-77
2022/04/07 01:16:55;;;;;;;;;;;0.20;98.00;;;;;;5095550;28;19904;-78
2022/04/07 01:19:21;;;;;;;;;;;0.20;98.00;;;;;;5095486;28;19908;-81
2022/04/07 01:21:47;;;;;;;;;;;0.20;98.10;;;;;;5077429;28;20012;-79
2022/04/07 01:24:13;;;;;;;;;;;0.20;98.10;;;;;;5095385;28;19904;-79
2022/04/07 01:26:40;;;;;;;;;;;0.10;98.20;;;;;;5095370;28;20266;-79
2022/04/07 01:29:06;;;;;;;;;;;0.20;98.20;;;;;;5088317;28;19981;-78
2022/04/07 01:31:32;;;;;;;;;;;0.10;98.30;;;;;;5095390;28;20349;-78
2022/04/07 01:33:59;;;;;;;;;;;0.10;98.30;;;;;;5094818;28;19947;-80
2022/04/07 01:36:26;;;;;;;;;;;0.10;98.40;;;;;;5095931;28;20314;-80
2022/04/07 01:38:52;;;;;;;;;;;0.10;98.40;;;;;;5095038;28;19908;-80
2022/04/07 01:41:20;;;;;;;;;;;0.10;98.40;;;;;;5095077;28;19914;-81
2022/04/07 01:43:47;;;;;;;;;;;0.10;98.50;;;;;;5093847;28;19919;-79
2022/04/07 01:46:12;;;;;;;;;;;0.00;98.50;;;;;;5094849;28;19904;-79
2022/04/07 01:48:39;;;;;;;;;;;0.10;98.60;;;;;;5094614;28;19923;-79
2022/04/07 01:51:05;;;;;;;;;;;0.10;98.70;;;;;;5094926;28;19943;-79
2022/04/07 01:53:31;;;;;;;;;;;0.10;98.60;;;;;;5094940;28;19998;-79
2022/04/07 01:55:57;;;;;;;;;;;0.10;98.70;;;;;;5095838;28;19943;-78
2022/04/07 01:58:22;;;;;;;;;;;0.10;98.80;;;;;;5096821;28;19908;-79
2022/04/07 02:00:48;;;;;;;;;;;0.10;98.90;;;;;;5094811;28;20326;-78
2022/04/07 02:03:14;;;;;;;;;;;0.10;99.00;;;;;;5095294;28;19911;-79
2022/04/07 02:05:39;;;;;;;;;;;0.10;99.00;;;;;;5096046;28;19976;-78
2022/04/07 02:08:05;;;;;;;;;;;0.10;99.00;;;;;;5094735;28;19958;-79
2022/04/07 02:10:32;;;;;;;;;;;0.10;99.00;;;;;;5094449;28;20395;-80
2022/04/07 02:12:58;;;;;;;;;;;0.10;99.00;;;;;;5095023;28;19939;-79
2022/04/07 02:15:24;;;;;;;;;;;0.10;99.00;;;;;;5094986;28;20280;-82
2022/04/07 02:17:50;;;;;;;;;;;0.10;99.10;;;;;;5093436;28;19908;-81
2022/04/07 02:20:15;;;;;;;;;;;0.10;99.10;;;;;;5094745;28;20276;-79
2022/04/07 02:22:41;;;;;;;;;;;0.10;99.10;;;;;;5094139;28;19908;-79
2022/04/07 02:25:08;;;;;;;;;;;0.10;99.20;;;;;;5094870;28;19904;-80
2022/04/07 02:27:36;;;;;;;;;;;0.10;99.30;;;;;;5094192;28;19931;-79
2022/04/07 02:30:04;;;;;;;;;;;0.10;99.40;;;;;;5095600;28;20384;-78
2022/04/07 02:32:29;;;;;;;;;;;0.10;99.50;;;;;;5095843;28;19994;-79
2022/04/07 02:34:56;;;;;;;;;;;0.10;99.60;;;;;;5094311;28;19959;-80
2022/04/07 02:37:22;;;;;;;;;;;0.10;99.80;;;;;;5099201;28;20418;-80
2022/04/07 02:39:47;;;;;;;;;;;0.20;99.80;;;;;;5077929;28;19946;-80
2022/04/07 02:42:13;;;;;;;;;;;0.20;99.90;;;;;;5094184;28;19907;-80
2022/04/07 02:44:39;;;;;;;;;;;0.20;99.90;;;;;;5094033;28;20417;-80
2022/04/07 02:47:04;;;;;;;;;;;0.20;99.80;;;;;;5093742;28;19915;-80
2022/04/07 02:49:30;;;;;;;;;;;0.20;99.80;;;;;;5093526;28;20368;-81
2022/04/07 02:51:55;;;;;;;;;;;0.20;99.80;;;;;;5092871;28;20393;-79
2022/04/07 02:54:21;;;;;;;;;;;0.20;99.80;;;;;;5075632;28;19915;-80
2022/04/07 02:56:47;;;;;;;;;;;0.30;99.90;;;;;;5093734;28;19904;-77
2022/04/07 02:59:13;;;;;;;;;;;0.30;99.90;;;;;;5092260;28;19910;-80
2022/04/07 03:01:38;;;;;;;;;;;0.40;99.90;;;;;;5093539;28;20045;-79
2022/04/07 03:04:04;;;;;;;;;;;0.40;99.90;;;;;;5093572;28;19908;-80
2022/04/07 03:06:30;;;;;;;;;;;0.40;99.90;;;;;;5093576;28;20338;-80
2022/04/07 03:08:55;;;;;;;;;;;0.40;99.80;;;;;;5092485;28;19923;-81
2022/04/07 03:11:21;;;;;;;;;;;0.40;99.80;;;;;;5093264;28;19904;-79
2022/04/07 03:13:46;;;;;;;;;;;0.40;99.70;;;;;;5093366;28;19924;-78
2022/04/07 03:16:12;;;;;;;;;;;0.50;99.80;;;;;;5094559;28;20356;-80
2022/04/07 03:18:38;;;;;;;;;;;0.50;99.80;;;;;;5093423;28;19915;-77
2022/04/07 03:21:03;;;;;;;;;;;0.50;99.70;;;;;;5093958;28;20353;-79
2022/04/07 03:23:29;;;;;;;;;;;0.50;99.70;;;;;;5093359;28;20357;-79
2022/04/07 03:25:54;;;;;;;;;;;0.50;99.70;;;;;;5092384;28;19904;-80
2022/04/07 03:28:20;;;;;;;;;;;0.50;99.70;;;;;;5093347;28;20400;-77
2022/04/07 03:30:46;;;;;;;;;;;0.50;99.70;;;;;;5093179;28;20361;-78
2022/04/07 03:33:11;;;;;;;;;;;0.50;99.70;;;;;;5093178;28;19910;-79
2022/04/07 03:35:37;;;;;;;;;;;0.50;99.70;;;;;;5092954;28;19999;-78
2022/04/07 03:38:06;;;;;;;;;;;0.50;99.70;;;;;;5092980;28;20450;-79
2022/04/07 03:40:35;;;;;;;;;;;0.60;99.70;;;;;;5092977;28;19936;-79
2022/04/07 03:43:01;;;;;;;;;;;0.60;99.70;;;;;;5086392;28;19915;-79
2022/04/07 03:45:27;;;;;;;;;;;0.60;99.70;;;;;;5077675;28;19966;-78
2022/04/07 03:47:52;;;;;;;;;;;0.60;99.80;;;;;;5073683;28;19924;-78
2022/04/07 03:50:18;;;;;;;;;;;0.60;99.70;;;;;;5073198;28;19968;-80
2022/04/07 03:52:44;;;;;;;;;;;0.60;99.80;;;;;;5073703;28;19905;-79
2022/04/07 03:55:10;;;;;;;;;;;0.60;99.80;;;;;;5073402;28;19908;-79
2022/04/07 03:57:35;;;;;;;;;;;0.60;99.90;;;;;;5054911;28;19911;-80
2022/04/07 04:00:01;;;;;;;;;;;0.60;99.90;;;;;;5078535;28;19931;-78
2022/04/07 04:02:27;;;;;;;;;;;0.60;99.90;;;;;;5092936;28;19997;-77
2022/04/07 04:04:53;;;;;;;;;;;0.70;99.90;;;;;;5075521;28;19908;-78
2022/04/07 04:07:18;;;;;;;;;;;0.70;99.90;;;;;;5093194;28;20348;-78
2022/04/07 04:09:45;;;;;;;;;;;0.70;99.90;;;;;;5093967;28;19904;-78
2022/04/07 04:12:10;;;;;;;;;;;0.80;99.90;;;;;;5097289;28;19908;-78
2022/04/07 04:14:36;;;;;;;;;;;0.80;99.90;;;;;;5098428;28;19912;-80
2022/04/07 04:17:02;;;;;;;;;;;0.80;99.90;;;;;;5096864;28;19915;-77
2022/04/07 04:19:27;;;;;;;;;;;0.80;99.70;;;;;;5097150;28;19904;-79
2022/04/07 04:21:53;;;;;;;;;;;0.80;99.70;;;;;;5095841;28;19975;-79
2022/04/07 04:24:19;;;;;;;;;;;0.80;99.70;;;;;;5107008;28;20388;-77
2022/04/07 04:26:44;;;;;;;;;;;0.80;99.70;;;;;;5108712;28;19920;-79
2022/04/07 04:29:10;;;;;;;;;;;0.80;99.70;;;;;;5098382;28;19922;-78
2022/04/07 04:31:37;;;;;;;;;;;0.80;99.70;;;;;;5096881;28;19904;-78
2022/04/07 04:34:03;;;;;;;;;;;0.90;99.80;;;;;;5095395;28;20411;-79
2022/04/07 04:36:28;;;;;;;;;;;0.90;99.60;;;;;;5096679;28;19990;-78
2022/04/07 04:38:54;;;;;;;;;;;0.90;99.60;;;;;;5096793;28;19912;-79
2022/04/07 04:41:20;;;;;;;;;;;0.90;99.30;;;;;;5096677;28;19951;-79
2022/04/07 04:43:45;;;;;;;;;;;1.00;99.40;;;;;;5096479;28;20405;-79
2022/04/07 04:46:12;;;;;;;;;;;1.10;99.10;;;;;;5096392;28;19916;-79
2022/04/07 04:48:38;;;;;;;;;;;1.10;99.00;;;;;;5096667;28;19924;-80
2022/04/07 04:51:04;;;;;;;;;;;1.10;98.50;;;;;;5096564;28;19961;-79
2022/04/07 04:53:30;;;;;;;;;;;1.20;98.00;;;;;;5095947;28;20404;-78
2022/04/07 04:55:55;;;;;;;;;;;1.30;98.10;;;;;;5095810;28;19926;-80
2022/04/07 04:58:21;;;;;;;;;;;1.40;97.40;;;;;;5095896;28;19953;-80
2022/04/07 05:00:47;;;;;;;;;;;1.40;97.00;;;;;;5096042;28;19904;-81
2022/04/07 05:03:12;;;;;;;;;;;1.40;96.90;;;;;;5095850;28;19904;-82
2022/04/07 05:05:38;;;;;;;;;;;1.50;96.90;;;;;;5091769;28;19940;-80
2022/04/07 05:08:04;;;;;;;;;;;1.50;97.20;;;;;;5075469;28;19916;-80
2022/04/07 05:10:29;;;;;;;;;;;1.50;97.30;;;;;;5076354;28;19965;-79
2022/04/07 05:12:55;;;;;;;;;;;1.60;97.50;;;;;;5075231;28;19916;-82
2022/04/07 05:15:23;;;;;;;;;;;1.60;97.50;;;;;;5075531;28;19973;-82
2022/04/07 05:17:50;;;;;;;;;;;1.60;97.50;;;;;;5074865;28;19919;-78
2022/04/07 05:20:16;;;;;;;;;;;1.60;97.60;;;;;;5065061;28;19904;-80
2022/04/07 05:22:42;;;;;;;;;;;1.70;97.70;;;;;;5093865;28;20094;-80
2022/04/07 05:25:08;;;;;;;;;;;1.80;97.20;;;;;;5095619;28;20375;-81
2022/04/07 05:27:36;;;;;;;;;;;1.80;97.40;;;;;;5095557;28;19911;-81
2022/04/07 05:30:05;;;;;;;;;;;1.80;97.40;;;;;;5096813;28;19904;-80
2022/04/07 05:32:30;;;;;;;;;;;1.70;97.40;;;;;;5096379;28;19915;-79
2022/04/07 05:34:56;;;;;;;;;;;1.70;97.80;;;;;;5099039;28;20277;-81
2022/04/07 05:37:24;;;;;;;;;;;1.70;98.20;;;;;;5096330;28;19904;-79
2022/04/07 05:39:51;;;;;;;;;;;1.70;98.50;;;;;;5101542;28;19915;-80
2022/04/07 05:42:17;;;;;;;;;;;1.60;99.10;;;;;;5076559;28;19951;-80
2022/04/07 05:44:43;;;;;;;;;;;1.50;99.40;;;;;;5094805;28;19943;-79
2022/04/07 05:47:08;;;;;;;;;;;1.50;99.80;;;;;;5076381;28;19911;-79
2022/04/07 05:49:34;;;;;;;;;;;1.40;99.90;;;;;;5095429;28;20002;-78
2022/04/07 05:52:02;;;;;;;;;;;1.40;99.90;;;;;;5095162;28;20010;-79
2022/04/07 05:54:28;;;;;;;;;;;1.30;99.90;;;;;;5094570;28;19960;-80
2022/04/07 05:56:54;;;;;;;;;;;1.40;99.90;;;;;;5093708;28;19999;-82
2022/04/07 05:59:19;;;;;;;;;;;1.50;99.90;;;;;;5075723;28;19912;-80
2022/04/07 06:01:45;;;;;;;;;;;1.60;99.90;;;;;;5094450;28;19904;-84
2022/04/07 06:04:11;;;;;;;;;;;1.50;99.90;;;;;;5076368;28;19904;-81
2022/04/07 06:06:36;;;;;;;;;;;1.50;99.90;;;;;;5076629;28;19904;-81
2022/04/07 06:09:02;;;;;;;;;;;1.60;99.90;;;;;;5094597;28;19912;-81
2022/04/07 06:11:28;;;;;;;;;;;1.60;99.90;;;;;;5093697;28;19912;-80
2022/04/07 06:13:53;;;;;;;;;;;1.50;99.90;;;;;;5094503;28;19967;-81
2022/04/07 06:16:19;;;;;;;;;;;1.60;99.90;;;;;;5094807;28;20345;-78
2022/04/07 06:18:45;;;;;;;;;;;1.70;99.90;;;;;;5098996;28;19930;-80
2022/04/07 06:21:10;;;;;;;;;;;1.80;99.90;;;;;;5098051;28;19915;-82
2022/04/07 06:23:36;;;;;;;;;;;1.70;99.90;;;;;;5092938;28;19991;-82
2022/04/07 06:26:02;;;;;;;;;;;1.80;99.90;;;;;;5094341;28;19950;-81
2022/04/07 06:28:27;;;;;;;;;;;1.90;99.90;;;;;;5093284;28;20280;-81
2022/04/07 06:30:54;;;;;;;;;;;1.80;99.90;;;;;;5094629;28;19908;-81
2022/04/07 06:33:21;;;;;;;;;;;1.70;99.90;;;;;;5075718;28;19915;-82
2022/04/07 06:35:48;;;;;;;;;;;1.70;99.90;;;;;;5095456;28;19994;-85
2022/04/07 06:38:14;;;;;;;;;;;1.60;99.90;;;;;;5094948;28;19947;-82
2022/04/07 06:40:39;;;;;;;;;;;1.60;99.90;;;;;;5094162;28;19944;-82
2022/04/07 06:43:05;;;;;;;;;;;1.60;99.90;;;;;;5093138;28;19904;-80
2022/04/07 06:45:31;;;;;;;;;;;1.60;99.90;;;;;;5093784;28;19904;-81
2022/04/07 06:48:02;;;;;;;;;;;1.70;99.90;;;;;;5075460;28;20014;-81
2022/04/07 06:50:28;;;;;;;;;;;1.60;99.90;;;;;;5096171;28;19908;-79
2022/04/07 06:52:54;;;;;;;;;;;1.70;99.90;;;;;;5094701;28;19908;-79
2022/04/07 06:55:20;;;;;;;;;;;1.70;99.90;;;;;;5094680;28;20164;-83
2022/04/07 06:57:48;;;;;;;;;;;1.70;99.90;;;;;;5097926;28;20026;-83
2022/04/07 07:00:14;;;;;;;;;;;1.70;99.90;;;;;;5101015;28;20265;-82
2022/04/07 07:02:40;;;;;;;;;;;1.70;99.90;;;;;;5093629;28;19919;-78
2022/04/07 07:05:06;;;;;;;;;;;1.80;99.90;;;;;;5075042;28;20339;-79
2022/04/07 07:07:31;;;;;;;;;;;1.90;99.90;;;;;;5093642;28;19919;-77
2022/04/07 07:09:57;;;;;;;;;;;1.80;99.90;;;;;;5092121;28;19997;-77
2022/04/07 07:12:22;;;;;;;;;;;1.80;99.90;;;;;;5092299;28;20268;-77
2022/04/07 07:14:48;;;;;;;;;;;1.60;99.90;;;;;;5093134;28;19916;-78
2022/04/07 07:17:14;;;;;;;;;;;1.60;99.90;;;;;;5074983;28;19908;-79
2022/04/07 07:19:39;;;;;;;;;;;1.70;99.90;;;;;;5092133;28;20292;-77
2022/04/07 07:22:05;;;;;;;;;;;1.80;99.90;;;;;;5060192;28;19904;-78
2022/04/07 07:24:30;;;;;;;;;;;1.80;99.90;;;;;;5075032;28;19995;-77
2022/04/07 07:26:56;;;;;;;;;;;1.70;99.90;;;;;;5073158;28;19912;-78
2022/04/07 07:29:21;;;;;;;;;;;1.70;99.90;;;;;;5083080;28;19908;-79
2022/04/07 07:31:47;;;;;;;;;;;1.70;99.90;;;;;;5093070;28;19956;-77
2022/04/07 07:34:13;;;;;;;;;;;1.70;99.90;;;;;;5091824;28;20308;-79
2022/04/07 07:36:38;;;;;;;;;;;1.70;99.90;;;;;;5092901;28;19968;-78
2022/04/07 07:39:04;;;;;;;;;;;1.80;99.90;;;;;;5093027;28;19971;-77
2022/04/07 07:41:29;;;;;;;;;;;1.80;99.90;;;;;;5093202;28;20471;-79
2022/04/07 07:44:04;;;;;;;;;;;1.90;99.90;;;;;;5092779;28;19910;-81
2022/04/07 07:46:30;;;;;;;;;;;1.90;99.90;;;;;;5092117;28;19908;-76
2022/04/07 07:48:56;;;;;;;;;;;1.90;99.90;;;;;;5092451;28;19912;-78
2022/04/07 07:51:22;;;;;;;;;;;1.80;99.90;;;;;;5091380;28;19934;-80
2022/04/07 07:53:47;;;;;;;;;;;1.90;99.90;;;;;;5092772;28;19910;-78
2022/04/07 07:56:13;;;;;;;;;;;2.00;99.90;;;;;;5092529;28;19943;-79
2022/04/07 07:58:39;;;;;;;;;;;2.00;99.90;;;;;;5092591;28;19912;-78
2022/04/07 08:01:04;;;;;;;;;;;2.00;99.90;;;;;;5094017;28;19910;-78
2022/04/07 08:03:30;;;;;;;;;;;2.00;99.90;;;;;;5093816;28;19908;-78
2022/04/07 08:05:55;;;;;;;;;;;2.00;99.90;;;;;;5092219;28;19904;-78
2022/04/07 08:08:21;;;;;;;;;;;2.00;99.90;;;;;;5091243;28;19915;-80
2022/04/07 08:10:50;;;;;;;;;;;1.90;99.90;;;;;;5093336;28;20365;-81
2022/04/07 08:13:16;;;;;;;;;;;1.80;99.90;;;;;;5076629;28;19922;-78
2022/04/07 08:15:41;;;;;;;;;;;1.80;99.90;;;;;;5092340;28;19998;-78
2022/04/07 08:18:08;;;;;;;;;;;1.80;99.90;;;;;;5091972;28;20358;-77
2022/04/07 08:20:34;;;;;;;;;;;1.80;99.90;;;;;;5092022;28;19908;-79
2022/04/07 08:22:59;;;;;;;;;;;1.90;99.90;;;;;;5092292;28;19915;-78
2022/04/07 08:25:25;;;;;;;;;;;1.90;99.90;;;;;;5091086;28;19908;-77
2022/04/07 08:27:50;;;;;;;;;;;2.00;99.90;;;;;;5092447;28;19912;-78
2022/04/07 08:30:16;;;;;;;;;;;1.90;99.90;;;;;;5092763;28;19908;-78
2022/04/07 08:32:42;;;;;;;;;;;2.00;99.90;;;;;;5092209;28;19904;-79
2022/04/07 08:35:10;;;;;;;;;;;2.00;99.90;;;;;;5091992;28;20327;-77
2022/04/07 08:37:36;;;;;;;;;;;2.10;99.90;;;;;;5091946;28;20006;-79
2022/04/07 08:40:05;;;;;;;;;;;2.20;99.90;;;;;;5090992;28;20319;-79
2022/04/07 08:42:32;;;;;;;;;;;2.20;99.90;;;;;;5092147;28;19973;-78
2022/04/07 08:44:57;;;;;;;;;;;2.30;99.90;;;;;;5091947;28;19904;-79
2022/04/07 08:47:24;;;;;;;;;;;2.30;99.90;;;;;;5091897;28;19973;-77
2022/04/07 08:49:50;;;;;;;;;;;2.30;99.90;;;;;;5092228;28;19943;-79
2022/04/07 08:52:16;;;;;;;;;;;2.30;99.90;;;;;;5092055;28;19970;-77
2022/04/07 08:54:43;;;;;;;;;;;2.40;99.90;;;;;;5091923;28;20007;-79
2022/04/07 08:57:09;;;;;;;;;;;2.50;99.90;;;;;;5093244;28;19908;-77
2022/04/07 08:59:35;;;;;;;;;;;2.50;99.90;;;;;;5094653;28;19964;-79
2022/04/07 09:02:02;;;;;;;;;;;2.60;99.90;;;;;;5095815;28;19904;-78
2022/04/07 09:04:31;;;;;;;;;;;2.60;99.90;;;;;;5096036;28;19956;-78
2022/04/07 09:06:57;;;;;;;;;;;2.50;99.90;;;;;;5097688;28;20003;-79
2022/04/07 09:09:22;;;;;;;;;;;2.70;99.90;;;;;;5098114;28;20000;-77
2022/04/07 09:11:57;;;;;;;;;;;2.70;99.90;;;;;;5079469;28;20061;-80
2022/04/07 09:14:23;;;;;;;;;;;2.70;99.90;;;;;;5097554;28;19915;-78
2022/04/07 09:16:55;;;;;;;;;;;2.70;99.90;;;;;;5095344;28;19965;-82
2022/04/07 09:19:21;;;;;;;;;;;2.70;99.90;;;;;;5095632;28;20390;-80
2022/04/07 09:21:46;;;;;;;;;;;2.70;99.90;;;;;;5095480;28;19991;-79
2022/04/07 09:24:12;;;;;;;;;;;2.70;99.90;;;;;;5095429;28;19985;-81
2022/04/07 09:26:43;;;;;;;;;;;2.80;99.90;;;;;;5095751;28;19961;-79
2022/04/07 09:29:09;;;;;;;;;;;2.80;99.90;;;;;;5095026;28;20327;-78
2022/04/07 09:31:39;;;;;;;;;;;2.80;99.90;;;;;;5095669;28;19904;-82
2022/04/07 09:34:05;;;;;;;;;;;2.80;99.90;;;;;;5087267;28;19912;-81
2022/04/07 09:36:30;;;;;;;;;;;2.90;99.90;;;;;;5095316;28;19911;-80
2022/04/07 09:38:58;;;;;;;;;;;3.00;99.90;;;;;;5095108;28;20357;-80
2022/04/07 09:41:26;;;;;;;;;;;3.10;99.90;;;;;;5094807;28;19915;-80
2022/04/07 09:43:57;;;;;;;;;;;3.20;99.90;;;;;;5094418;28;19904;-80
2022/04/07 09:46:23;;;;;;;;;;;3.20;99.90;;;;;;5095049;28;19904;-79
2022/04/07 09:48:58;;;;;;;;;;;3.20;99.90;;;;;;5095077;28;19922;-79
2022/04/07 09:51:24;;;;;;;;;;;3.30;99.90;;;;;;5094159;28;19911;-78
2022/04/07 09:53:51;;;;;;;;;;;3.40;99.90;;;;;;5095364;28;19908;-80
2022/04/07 09:56:16;;;;;;;;;;;3.40;99.90;;;;;;5095525;28;19907;-79
2022/04/07 09:58:42;;;;;;;;;;;3.50;99.90;;;;;;5095230;28;19910;-79
2022/04/07 10:01:09;;;;;;;;;;;3.60;99.90;;;;;;5094935;28;19911;-79
2022/04/07 10:03:35;;;;;;;;;;;3.70;99.90;;;;;;5094738;28;19911;-80
2022/04/07 10:06:01;;;;;;;;;;;3.70;99.90;;;;;;5076339;28;19911;-78
2022/04/07 10:08:26;;;;;;;;;;;3.70;99.90;;;;;;5093888;28;19916;-80
2022/04/07 10:10:52;;;;;;;;;;;3.80;99.90;;;;;;5094486;28;20222;-80
2022/04/07 10:13:18;;;;;;;;;;;3.80;99.90;;;;;;5076012;28;19986;-81
2022/04/07 10:15:45;;;;;;;;;;;3.80;99.90;;;;;;5094447;28;19908;-79
2022/04/07 10:18:16;;;;;;;;;;;3.90;99.90;;;;;;5094164;28;20357;-78
2022/04/07 10:20:44;;;;;;;;;;;4.00;99.90;;;;;;5094714;28;19910;-80
2022/04/07 10:23:13;;;;;;;;;;;4.20;99.90;;;;;;5095452;28;20384;-80
2022/04/07 10:25:43;;;;;;;;;;;4.30;99.90;;;;;;5096036;28;19912;-80
2022/04/07 10:28:10;;;;;;;;;;;4.30;99.90;;;;;;5094462;28;19922;-81
2022/04/07 10:30:54;;;;;;;;;;;4.40;99.90;;;;;;5094444;28;19910;-79
2022/04/07 10:33:33;;;;;;;;;;;4.40;99.90;;;;;;5094030;28;20421;-80
2022/04/07 10:35:59;;;;;;;;;;;4.50;99.90;;;;;;5093599;28;19908;-80
2022/04/07 10:38:41;;;;;;;;;;;4.50;99.90;;;;;;5093863;28;19904;-78
2022/04/07 10:41:07;;;;;;;;;;;4.50;99.90;;;;;;5093056;28;19908;-79
2022/04/07 10:43:38;;;;;;;;;;;4.60;99.90;;;;;;5093713;28;19904;-80
2022/04/07 10:46:05;;;;;;;;;;;4.70;99.90;;;;;;5093818;28;19912;-78
2022/04/07 10:48:43;;;;;;;;;;;4.80;99.90;;;;;;5093829;28;19967;-79
2022/04/07 10:51:09;;;;;;;;;;;4.80;99.90;;;;;;5093620;28;20014;-80
2022/04/07 10:53:36;;;;;;;;;;;5.00;99.90;;;;;;5093646;28;19978;-79
2022/04/07 10:56:08;;;;;;;;;;;5.10;99.90;;;;;;5094890;28;19936;-80
2022/04/07 10:58:36;;;;;;;;;;;5.20;99.90;;;;;;5093174;28;19908;-77
2022/04/07 11:01:02;;;;;;;;;;;5.10;99.90;;;;;;5093556;28;19904;-79
2022/04/07 11:03:28;;;;;;;;;;;5.30;99.90;;;;;;5093688;28;19947;-79
2022/04/07 11:05:58;;;;;;;;;;;5.50;99.90;;;;;;5093315;28;19915;-80
2022/04/07 11:08:24;;;;;;;;;;;5.50;99.90;;;;;;5074975;28;19927;-79
2022/04/07 11:10:52;;;;;;;;;;;5.50;99.90;;;;;;5075783;28;20284;-80
2022/04/07 11:13:19;;;;;;;;;;;5.60;99.90;;;;;;5079580;28;19995;-80
2022/04/07 11:15:47;;;;;;;;;;;5.50;99.90;;;;;;5098008;28;19904;-81
2022/04/07 11:18:22;;;;;;;;;;;5.50;99.90;;;;;;5096069;28;19905;-78
2022/04/07 11:21:02;;;;;;;;;;;5.50;99.90;;;;;;5095384;28;20416;-80
2022/04/07 11:23:42;;;;;;;;;;;5.50;99.90;;;;;;5094370;28;19957;-79
2022/04/07 11:26:12;;;;;;;;;;;5.50;99.90;;;;;;5093661;28;19904;-80
2022/04/07 11:28:38;;;;;;;;;;;5.50;99.90;;;;;;5092333;28;19938;-80
2022/04/07 11:31:04;;;;;;;;;;;5.60;99.90;;;;;;5093265;28;19908;-80
2022/04/07 11:33:39;;;;;;;;;;;5.70;99.90;;;;;;5093111;28;19908;-80
2022/04/07 11:36:07;;;;;;;;;;;5.80;99.90;;;;;;5095012;28;19945;-81
2022/04/07 11:38:32;;;;;;;;;;;5.90;99.90;;;;;;5094725;28;19904;-81
2022/04/07 11:41:04;;;;;;;;;;;6.00;99.90;;;;;;5091721;28;19931;-81
2022/04/07 11:43:30;;;;;;;;;;;6.10;99.90;;;;;;5074502;28;19950;-79
2022/04/07 11:45:56;;;;;;;;;;;6.20;99.70;;;;;;5091798;28;20438;-78
2022/04/07 11:48:23;;;;;;;;;;;6.20;99.50;;;;;;5092793;28;20015;-79
2022/04/07 11:50:51;;;;;;;;;;;6.20;99.50;;;;;;5092874;28;19999;-79
2022/04/07 11:53:17;;;;;;;;;;;6.30;99.40;;;;;;5094150;28;19908;-79
2022/04/07 11:55:43;;;;;;;;;;;6.20;99.20;;;;;;5094984;28;19904;-81
2022/04/07 11:58:15;;;;;;;;;;;6.40;99.40;;;;;;5091724;28;19908;-79
2022/04/07 12:00:41;;;;;;;;;;;6.70;99.30;;;;;;5092010;28;19910;-80
2022/04/07 12:03:06;;;;;;;;;;;6.60;98.20;;;;;;5091394;28;20258;-80
2022/04/07 12:05:43;;;;;;;;;;;6.60;98.60;;;;;;5092366;28;20384;-81
2022/04/07 12:08:11;;;;;;;;;;;6.90;98.60;;;;;;5092145;28;19916;-81
2022/04/07 12:10:38;;;;;;;;;;;7.00;98.30;;;;;;5092154;28;19915;-81
2022/04/07 12:13:04;;;;;;;;;;;7.00;97.90;;;;;;5092353;28;19920;-80
2022/04/07 12:15:30;;;;;;;;;;;6.90;97.70;;;;;;5092580;28;19990;-81
2022/04/07 12:17:58;;;;;;;;;;;6.80;97.70;;;;;;5092115;28;20344;-80
2022/04/07 12:20:24;;;;;;;;;;;6.80;97.80;;;;;;5084170;28;20357;-79
2022/04/07 12:23:03;;;;;;;;;;;6.80;97.70;;;;;;5072456;28;19912;-80
2022/04/07 12:25:28;;;;;;;;;;;6.80;98.00;;;;;;5072874;28;19915;-80
2022/04/07 12:28:05;;;;;;;;;;;6.80;97.90;;;;;;5070715;28;20289;-81
2022/04/07 12:30:47;;;;;;;;;;;6.80;97.80;;;;;;5091873;28;20253;-78
2022/04/07 12:33:31;;;;;;;;;;;6.70;97.80;;;;;;5095973;28;19904;-82
2022/04/07 12:35:56;;;;;;;;;;;6.70;97.90;;;;;;5095040;28;19926;-80
2022/04/07 12:38:22;;;;;;;;;;;6.80;98.00;;;;;;5095683;28;19908;-80
2022/04/07 12:40:49;;;;;;;;;;;6.90;98.00;;;;;;5096487;28;19907;-80
2022/04/07 12:43:20;;;;;;;;;;;7.00;98.00;;;;;;5096312;28;19911;-81
2022/04/07 12:45:55;;;;;;;;;;;7.20;98.10;;;;;;5095892;28;20369;-80
2022/04/07 12:48:23;;;;;;;;;;;7.30;97.60;;;;;;5096555;28;19919;-81
2022/04/07 12:50:49;;;;;;;;;;;7.40;97.30;;;;;;5095611;28;19904;-79
2022/04/07 12:53:30;;;;;;;;;;;7.60;97.30;;;;;;5083984;28;19913;-78
2022/04/07 12:55:56;;;;;;;;;;;7.70;96.90;;;;;;5075857;28;19911;-79
2022/04/07 12:58:28;;;;;;;;;;;7.80;96.50;;;;;;5075158;28;19908;-80
2022/04/07 13:01:01;;;;;;;;;;;7.90;96.50;;;;;;5073905;28;19962;-82
2022/04/07 13:03:29;;;;;;;;;;;8.00;96.30;;;;;;5075637;28;20397;-81
2022/04/07 13:05:55;;;;;;;;;;;8.10;96.00;;;;;;5075391;28;19994;-80
2022/04/07 13:08:21;;;;;;;;;;;8.10;95.80;;;;;;5082571;28;19919;-80
2022/04/07 13:10:47;;;;;;;;;;;8.10;95.70;;;;;;5095349;28;20365;-81
2022/04/07 13:13:15;;;;;;;;;;;8.00;95.50;;;;;;5095254;28;19916;-79
2022/04/07 13:15:40;;;;;;;;;;;7.90;95.50;;;;;;5095887;28;19934;-80
2022/04/07 13:18:06;;;;;;;;;;;7.90;95.60;;;;;;5094605;28;19904;-79
2022/04/07 13:20:32;;;;;;;;;;;8.00;95.80;;;;;;5094224;28;19956;-82
2022/04/07 13:22:57;;;;;;;;;;;8.00;95.60;;;;;;5094217;28;20353;-81
2022/04/07 13:25:23;;;;;;;;;;;8.00;95.40;;;;;;5086371;28;19913;-80
2022/04/07 13:27:48;;;;;;;;;;;7.80;95.40;;;;;;5074520;28;20163;-79
2022/04/07 13:30:14;;;;;;;;;;;7.80;95.60;;;;;;5091259;28;20280;-79
2022/04/07 13:32:40;;;;;;;;;;;7.80;95.70;;;;;;5095347;28;20041;-80
2022/04/07 13:35:06;;;;;;;;;;;7.90;95.60;;;;;;5095438;28;19904;-80
2022/04/07 13:37:31;;;;;;;;;;;8.10;95.50;;;;;;5095183;28;19911;-79
2022/04/07 13:39:57;;;;;;;;;;;8.20;95.40;;;;;;5095026;28;19904;-80
2022/04/07 13:42:23;;;;;;;;;;;8.30;95.40;;;;;;5093703;28;19908;-80
2022/04/07 13:44:48;;;;;;;;;;;8.40;95.10;;;;;;5095056;28;20361;-81
2022/04/07 13:47:14;;;;;;;;;;;8.40;95.00;;;;;;5097051;28;19999;-81
2022/04/07 13:49:39;;;;;;;;;;;8.50;94.90;;;;;;5094657;28;20385;-81
2022/04/07 13:52:08;;;;;;;;;;;8.60;94.80;;;;;;5095031;28;19908;-80
2022/04/07 13:54:37;;;;;;;;;;;8.60;94.60;;;;;;5095573;28;19991;-80
2022/04/07 13:57:03;;;;;;;;;;;8.60;94.50;;;;;;5096401;28;19904;-79
2022/04/07 13:59:29;;;;;;;;;;;8.70;94.40;;;;;;5096508;28;19966;-82
2022/04/07 14:01:55;;;;;;;;;;;8.80;94.20;;;;;;5094859;28;19908;-80
2022/04/07 14:04:20;;;;;;;;;;;8.60;94.00;;;;;;5095210;28;19911;-80
2022/04/07 14:06:46;;;;;;;;;;;8.60;94.00;;;;;;5095202;28;19908;-79
2022/04/07 14:09:14;;;;;;;;;;;8.60;94.00;;;;;;5094845;28;20032;-80
2022/04/07 14:11:40;;;;;;;;;;;8.70;93.90;;;;;;5094651;28;19915;-78
2022/04/07 14:14:06;;;;;;;;;;;8.80;93.80;;;;;;5094031;28;19916;-80
2022/04/07 14:16:33;;;;;;;;;;;8.80;93.70;;;;;;5082357;28;20372;-80
2022/04/07 14:18:59;;;;;;;;;;;8.90;93.70;;;;;;5074000;28;20293;-80
2022/04/07 14:21:25;;;;;;;;;;;9.00;93.70;;;;;;5073841;28;19912;-79
2022/04/07 14:23:57;;;;;;;;;;;9.00;93.60;;;;;;5074185;28;19908;-80
2022/04/07 14:26:23;;;;;;;;;;;9.00;93.40;;;;;;5072812;28;19904;-78
2022/04/07 14:28:50;;;;;;;;;;;9.00;93.30;;;;;;5079591;28;19922;-79